Leba, Poland
Current Conditions -  °F | °C
As of 11:00 AM on Tuesday 21 Oct 2014 (Local Time) from EPGD Reporting Station
Light Rain Light Rain  
Wind Chill: 52°   Ceiling: 1900
Heat Index: 52°   Visibility: 1.3mi
Dew Point: 50°   Wind: 5mph
Humidity: 94%   Direction: 250°WSW
Pressure: 29.71"   Gusts: NA
Location:  54.75°N, 17.53°E
Report Text: EPGD 210900Z 25004KT 220V280 2200 -RA BR SCT004 BKN019 11/10 Q1006
Loading
Personal Weather Stations






























Interactive Weather Map
Tropical Storm Tracking
New forecast layout! Learn more

10-Day Weather Forecast

Advertisements
Track Severe Weather on mobile